createdAt,value
2019-05-13T00:00:44.694Z,77.75
2019-05-13T00:03:13.654Z,77.50
2019-05-13T00:05:44.376Z,77.74
2019-05-13T00:08:13.932Z,76.54
2019-05-13T00:10:43.674Z,75.76
2019-05-13T00:13:14.487Z,76.80
2019-05-13T00:15:44.273Z,77.92
2019-05-13T00:18:14.397Z,76.63
2019-05-13T00:20:44.297Z,76.35
2019-05-13T00:23:14.282Z,78.23
2019-05-13T00:25:44.503Z,79.06
2019-05-13T00:28:14.422Z,80.24
2019-05-13T00:30:44.451Z,80.15
2019-05-13T00:33:13.970Z,79.80
2019-05-13T00:35:44.330Z,81.14
2019-05-13T00:38:14.094Z,80.35
2019-05-13T00:40:44.308Z,79.68
2019-05-13T00:43:14.351Z,80.59
2019-05-13T00:45:44.386Z,81.10
2019-05-13T00:48:14.320Z,81.46
2019-05-13T00:50:44.320Z,81.68
2019-05-13T00:53:13.415Z,81.88
2019-05-13T00:55:44.213Z,82.07
2019-05-13T00:58:13.979Z,81.83
2019-05-13T01:00:44.477Z,82.33
2019-05-13T01:03:14.202Z,82.17
2019-05-13T01:05:44.467Z,82.55
2019-05-13T01:08:14.563Z,81.60
2019-05-13T01:10:45.184Z,83.09
2019-05-13T01:13:13.814Z,83.42
2019-05-13T01:15:44.383Z,83.41
2019-05-13T01:18:14.208Z,83.97
2019-05-13T01:20:43.675Z,83.56
2019-05-13T01:23:14.113Z,83.03
2019-05-13T01:25:44.509Z,83.06
2019-05-13T01:28:13.568Z,83.68
2019-05-13T01:30:43.842Z,84.43
2019-05-13T01:33:14.530Z,84.57
2019-05-13T01:35:44.515Z,84.31
2019-05-13T01:38:13.576Z,84.45
2019-05-13T01:40:43.930Z,85.52
2019-05-13T01:43:14.391Z,84.99
2019-05-13T01:45:44.114Z,84.77
2019-05-13T01:48:14.141Z,85.73
2019-05-13T01:50:44.521Z,85.73
2019-05-13T01:53:14.461Z,86.23
2019-05-13T01:55:44.325Z,86.07
2019-05-13T01:58:14.604Z,85.75
2019-05-13T02:00:44.315Z,86.00
2019-05-13T02:03:14.417Z,86.41
2019-05-13T02:05:44.351Z,86.69
2019-05-13T02:08:14.325Z,87.50
2019-05-13T02:10:50.841Z,87.23
2019-05-13T02:13:19.311Z,86.98
2019-05-13T02:15:47.806Z,88.12
2019-05-13T02:18:16.275Z,88.64
2019-05-13T02:20:44.840Z,88.52
2019-05-13T02:23:14.538Z,88.59
2019-05-13T02:25:43.609Z,89.19
2019-05-13T02:28:13.842Z,88.94
2019-05-13T02:30:45.456Z,89.37
2019-05-13T02:33:13.379Z,90.71
2019-05-13T02:35:43.447Z,90.40
2019-05-13T02:38:22.792Z,90.51
2019-05-13T02:40:43.258Z,90.41
2019-05-13T02:43:13.602Z,90.48
2019-05-13T02:45:43.168Z,90.22
2019-05-13T02:48:12.592Z,90.42
2019-05-13T02:50:44.133Z,90.70
2019-05-13T02:53:13.569Z,91.07
2019-05-13T02:55:43.697Z,91.49
2019-05-13T02:58:12.599Z,91.58
2019-05-13T03:00:44.107Z,91.79
2019-05-13T03:03:12.863Z,92.42
2019-05-13T03:05:42.894Z,92.79
2019-05-13T03:08:12.817Z,92.71
2019-05-13T03:10:43.443Z,92.86
2019-05-13T03:13:12.618Z,93.00
2019-05-13T03:15:42.994Z,92.69
2019-05-13T03:18:13.393Z,92.27
2019-05-13T03:20:43.135Z,92.58
2019-05-13T03:23:13.391Z,93.03
2019-05-13T03:25:42.925Z,93.48
2019-05-13T03:28:13.530Z,93.73
2019-05-13T03:30:45.663Z,93.19
2019-05-13T03:33:18.764Z,93.42
2019-05-13T03:35:45.424Z,93.85
2019-05-13T03:38:12.962Z,94.15
2019-05-13T03:40:42.749Z,94.45
2019-05-13T03:43:12.869Z,94.97
2019-05-13T03:45:43.292Z,94.87
2019-05-13T03:48:13.111Z,94.69
2019-05-13T03:50:43.378Z,94.92
2019-05-13T03:53:13.038Z,94.51
2019-05-13T03:55:43.412Z,94.18
2019-05-13T03:58:13.286Z,94.31
2019-05-13T04:00:42.829Z,93.96
2019-05-13T04:03:13.536Z,93.90
2019-05-13T04:05:43.669Z,93.92
2019-05-13T04:08:13.259Z,94.56
2019-05-13T04:10:42.442Z,95.03
2019-05-13T04:13:12.412Z,94.97
2019-05-13T04:15:42.765Z,94.50
2019-05-13T04:18:12.535Z,93.80
2019-05-13T04:20:42.353Z,93.34
2019-05-13T04:23:12.916Z,93.43
2019-05-13T04:25:44.721Z,94.00
2019-05-13T04:28:13.405Z,93.84
2019-05-13T04:30:43.562Z,93.36
2019-05-13T04:33:13.947Z,93.44
2019-05-13T04:35:42.833Z,91.99
2019-05-13T04:38:13.193Z,91.42
2019-05-13T04:40:42.572Z,89.73
2019-05-13T04:43:13.011Z,89.09
2019-05-13T04:45:43.056Z,87.43
2019-05-13T04:48:12.742Z,87.26
2019-05-13T04:50:43.183Z,86.42
2019-05-13T04:53:13.644Z,84.07
2019-05-13T04:55:43.299Z,83.50
2019-05-13T04:58:12.979Z,82.27
2019-05-13T05:01:13.983Z,81.19
2019-05-13T05:03:57.821Z,79.51
2019-05-13T05:06:44.385Z,78.32
2019-05-13T05:09:18.924Z,80.03
2019-05-13T05:12:02.390Z,78.52
2019-05-13T05:14:52.959Z,75.58
2019-05-13T05:17:32.622Z,75.31
2019-05-13T05:20:27.467Z,76.36
2019-05-13T05:23:22.610Z,74.27
2019-05-13T05:26:19.268Z,73.22
2019-05-13T05:28:56.313Z,74.05
2019-05-13T05:31:33.737Z,74.50
2019-05-13T05:34:14.120Z,71.16
2019-05-13T05:36:57.701Z,73.27
2019-05-13T05:39:27.549Z,74.33
2019-05-13T05:41:57.941Z,72.58
2019-05-13T05:44:29.181Z,71.08
2019-05-13T05:47:02.565Z,73.41
2019-05-13T05:49:32.099Z,72.08
2019-05-13T05:52:03.935Z,71.07
2019-05-13T05:54:35.159Z,71.35
2019-05-13T05:57:05.167Z,71.25
2019-05-13T05:59:34.371Z,69.69
2019-05-13T06:02:03.275Z,68.79
2019-05-13T06:04:32.616Z,70.81
2019-05-13T06:07:03.410Z,68.80
2019-05-13T06:09:32.431Z,65.37
2019-05-13T06:12:01.850Z,66.58
2019-05-13T06:14:32.629Z,67.48
2019-05-13T06:17:02.653Z,70.09
2019-05-13T06:19:31.914Z,67.81
2019-05-13T06:22:02.269Z,66.08
2019-05-13T06:24:31.470Z,70.17
2019-05-13T06:27:01.512Z,70.50
2019-05-13T06:29:31.709Z,70.11
2019-05-13T06:32:15.381Z,68.03
2019-05-13T06:34:32.618Z,67.61
2019-05-13T06:37:01.900Z,67.12
2019-05-13T06:39:31.640Z,66.35
2019-05-13T06:42:02.802Z,68.21
2019-05-13T06:44:31.646Z,65.29
2019-05-13T06:47:02.566Z,65.69
2019-05-13T06:49:32.281Z,65.98
2019-05-13T06:52:01.726Z,66.99
2019-05-13T06:54:32.927Z,65.40
2019-05-13T06:57:04.393Z,67.12
2019-05-13T06:59:31.719Z,67.60
2019-05-13T07:02:02.143Z,69.37
2019-05-13T07:04:32.619Z,70.88
2019-05-13T07:07:09.960Z,65.83
2019-05-13T07:09:32.441Z,65.28
2019-05-13T07:12:02.890Z,66.75
2019-05-13T07:14:32.447Z,65.55
2019-05-13T07:17:02.004Z,65.93
2019-05-13T07:19:32.362Z,64.96
2019-05-13T07:22:02.867Z,62.45
2019-05-13T07:24:32.262Z,63.69
2019-05-13T07:27:02.075Z,65.17
2019-05-13T07:29:32.487Z,62.12
2019-05-13T07:32:01.878Z,59.90
2019-05-13T07:34:33.419Z,61.26
2019-05-13T07:37:01.916Z,59.77
2019-05-13T07:39:32.774Z,59.42
2019-05-13T07:42:04.996Z,61.99
2019-05-13T07:44:32.439Z,62.35
2019-05-13T07:47:03.314Z,61.67
2019-05-13T07:49:31.643Z,63.81
2019-05-13T07:52:01.692Z,59.94
2019-05-13T07:54:33.043Z,60.58
2019-05-13T07:57:01.877Z,61.35
2019-05-13T07:59:31.816Z,57.19
2019-05-13T08:02:02.132Z,60.50
2019-05-13T08:04:33.407Z,59.46
2019-05-13T08:07:02.252Z,60.97
2019-05-13T08:09:31.957Z,60.24
2019-05-13T08:12:09.857Z,60.49
2019-05-13T08:14:32.776Z,60.51
2019-05-13T08:17:02.729Z,60.91
2019-05-13T08:19:32.532Z,61.87
2019-05-13T08:22:02.305Z,60.24
2019-05-13T08:24:31.579Z,59.54
2019-05-13T08:27:02.082Z,59.45
2019-05-13T08:29:32.706Z,58.86
2019-05-13T08:32:02.911Z,60.35
2019-05-13T08:34:32.842Z,57.28
2019-05-13T08:37:02.749Z,55.69
2019-05-13T08:39:35.797Z,58.99
2019-05-13T08:42:12.877Z,59.45
2019-05-13T08:44:32.337Z,57.62
2019-05-13T08:47:03.101Z,57.77
2019-05-13T08:49:32.596Z,58.67
2019-05-13T08:52:01.697Z,58.30
2019-05-13T08:54:32.844Z,59.21
2019-05-13T08:57:02.872Z,54.06
2019-05-13T08:59:31.907Z,52.89
2019-05-13T09:02:02.895Z,56.63
2019-05-13T09:04:31.556Z,57.17
2019-05-13T09:07:02.130Z,56.53
2019-05-13T09:09:31.606Z,57.89
2019-05-13T09:12:02.573Z,57.30
2019-05-13T09:14:32.425Z,58.68
2019-05-13T09:17:02.046Z,55.54
2019-05-13T09:19:32.163Z,53.21
2019-05-13T09:22:02.922Z,53.67
2019-05-13T09:24:37.230Z,54.26
2019-05-13T09:27:02.027Z,52.34
2019-05-13T09:29:32.277Z,54.09
2019-05-13T09:32:03.792Z,53.08
2019-05-13T09:34:32.815Z,50.01
2019-05-13T09:37:02.815Z,49.13
2019-05-13T09:42:02.908Z,44.88
2019-05-13T09:44:32.673Z,46.65
2019-05-13T09:47:02.509Z,49.80
2019-05-13T09:49:32.983Z,50.11
2019-05-13T09:52:02.001Z,51.31
2019-05-13T09:54:32.821Z,46.41
2019-05-13T09:57:01.635Z,42.28
2019-05-13T09:59:31.747Z,41.97
2019-05-13T10:02:02.949Z,42.69
2019-05-13T10:04:31.840Z,43.84
2019-05-13T10:07:02.080Z,41.21
2019-05-13T10:09:32.698Z,40.38
2019-05-13T10:12:03.115Z,38.73
2019-05-13T10:14:32.814Z,35.93
2019-05-13T10:17:06.105Z,37.90
2019-05-13T10:19:32.341Z,39.20
2019-05-13T10:22:01.286Z,40.65
2019-05-13T10:24:32.315Z,41.15
2019-05-13T10:27:02.363Z,44.14
2019-05-13T10:29:32.093Z,40.77
2019-05-13T10:32:02.763Z,38.70
2019-05-13T10:34:32.043Z,36.15
2019-05-13T10:37:02.795Z,33.05
2019-05-13T10:39:31.313Z,35.24
2019-05-13T10:42:03.145Z,40.14
2019-05-13T10:44:29.996Z,39.97
2019-05-13T10:46:58.467Z,40.76
2019-05-13T10:49:26.965Z,37.02
2019-05-13T10:51:55.438Z,34.89
2019-05-13T10:54:23.946Z,32.04
2019-05-13T10:56:54.175Z,33.60
2019-05-13T10:59:23.230Z,32.05
2019-05-13T11:01:51.767Z,32.72
2019-05-13T11:04:22.225Z,36.69
2019-05-13T11:06:52.511Z,39.69
2019-05-13T11:09:21.827Z,40.53
2019-05-13T11:11:52.759Z,36.64
2019-05-13T11:17:43.581Z,32.53
2019-05-13T11:19:23.233Z,32.88
2019-05-13T11:21:51.675Z,36.14
2019-05-13T11:24:22.100Z,37.66
2019-05-13T11:26:52.347Z,35.41
2019-05-13T11:29:22.963Z,35.47
2019-05-13T11:31:52.449Z,36.83
2019-05-13T11:34:22.168Z,37.29
2019-05-13T11:36:53.262Z,35.29
2019-05-13T11:39:21.895Z,28.08
2019-05-13T11:41:50.616Z,30.83
2019-05-13T11:44:19.146Z,35.24
2019-05-13T11:46:47.673Z,40.10
2019-05-13T11:49:16.174Z,42.10
2019-05-13T11:51:44.999Z,34.52
2019-05-13T11:54:14.208Z,32.65
2019-05-13T11:56:49.380Z,29.75
2019-05-13T11:59:14.052Z,24.50
2019-05-13T12:01:43.151Z,26.38
2019-05-13T12:04:11.656Z,29.40
2019-05-13T12:06:48.119Z,33.75
2019-05-13T12:09:13.126Z,37.21
2019-05-13T12:11:40.711Z,38.13
2019-05-13T12:14:34.716Z,37.53
2019-05-13T12:16:42.161Z,39.19
2019-05-13T12:19:11.783Z,32.27
2019-05-13T12:21:43.325Z,28.12
2019-05-13T12:24:11.292Z,28.67
2019-05-13T12:26:43.104Z,31.69
2019-05-13T12:29:17.836Z,30.34
2019-05-13T12:31:40.333Z,27.64
2019-05-13T12:34:12.694Z,27.14
2019-05-13T12:36:42.921Z,27.31
2019-05-13T12:39:13.846Z,27.15
2019-05-13T12:41:42.071Z,28.92
2019-05-13T12:44:12.740Z,29.86
2019-05-13T12:46:41.499Z,29.49
2019-05-13T12:49:13.892Z,30.73
2019-05-13T12:51:43.860Z,32.25
2019-05-13T12:54:13.512Z,35.38
2019-05-13T12:56:42.626Z,36.76
2019-05-13T12:59:13.354Z,36.73
2019-05-13T13:01:41.184Z,39.35
2019-05-13T13:04:12.311Z,36.37
2019-05-13T13:06:44.672Z,36.16
2019-05-13T13:09:12.660Z,37.75
2019-05-13T13:11:43.555Z,36.98
2019-05-13T13:14:15.636Z,35.78
2019-05-13T13:16:42.446Z,34.26
2019-05-13T13:19:14.524Z,36.22
2019-05-13T13:21:41.519Z,31.48
2019-05-13T13:24:12.321Z,29.73
2019-05-13T13:26:42.817Z,28.43
2019-05-13T13:29:11.563Z,24.93
2019-05-13T13:31:43.284Z,28.92
2019-05-13T13:34:16.471Z,30.25
2019-05-13T13:36:46.132Z,32.66
2019-05-13T13:39:14.968Z,32.30
2019-05-13T13:41:43.691Z,31.19
2019-05-13T13:44:12.253Z,32.92
2019-05-13T13:46:44.599Z,35.67
2019-05-13T13:49:13.087Z,36.59
2019-05-13T13:51:44.529Z,36.46
2019-05-13T13:54:11.656Z,38.21
2019-05-13T13:56:44.118Z,39.61
2019-05-13T13:59:13.761Z,39.02
2019-05-13T14:01:40.565Z,38.22
2019-05-13T14:04:09.100Z,36.25
2019-05-13T14:06:25.163Z,49.11
2019-05-13T14:06:28.557Z,32.19
2019-05-13T14:09:07.900Z,30.85
2019-05-13T14:11:36.397Z,30.29
2019-05-13T14:14:05.010Z,30.80
2019-05-13T14:16:35.293Z,35.71
2019-05-13T14:19:03.988Z,35.95
2019-05-13T14:21:32.579Z,37.12
2019-05-13T14:24:02.648Z,38.78
2019-05-13T14:26:33.040Z,39.34
2019-05-13T14:29:02.602Z,42.63
2019-05-13T14:31:32.380Z,43.07
2019-05-13T14:34:03.431Z,43.35
2019-05-13T14:36:31.340Z,42.36
2019-05-13T14:39:02.571Z,41.01
2019-05-13T14:41:31.258Z,41.67
2019-05-13T14:43:59.876Z,40.04
2019-05-13T14:46:45.818Z,39.10
2019-05-13T14:48:58.559Z,38.55
2019-05-13T14:51:27.062Z,38.92
2019-05-13T14:53:55.539Z,35.42
2019-05-13T14:56:24.098Z,37.72
2019-05-13T14:58:52.573Z,34.26
2019-05-13T15:01:22.693Z,32.79
2019-05-13T15:03:52.135Z,32.57
2019-05-13T15:06:22.073Z,34.64
2019-05-13T15:08:52.582Z,31.67
2019-05-13T15:11:21.911Z,29.10
2019-05-13T15:13:51.869Z,29.79
2019-05-13T15:16:22.443Z,34.71
2019-05-13T15:18:52.475Z,36.62
2019-05-13T15:21:21.374Z,36.11
2019-05-13T15:23:51.775Z,37.94
2019-05-13T15:26:22.303Z,36.80
2019-05-13T15:28:51.857Z,37.88
2019-05-13T15:31:22.152Z,31.71
2019-05-13T15:33:52.428Z,32.43
2019-05-13T15:36:22.525Z,27.62
2019-05-13T15:38:52.008Z,29.00
2019-05-13T15:41:20.673Z,32.58
2019-05-13T15:43:51.282Z,32.12
2019-05-13T15:46:21.837Z,35.72
2019-05-13T15:48:51.411Z,34.50
2019-05-13T15:51:22.140Z,33.63
2019-05-13T15:53:51.735Z,35.84
2019-05-13T15:56:22.450Z,36.87
2019-05-13T15:58:52.974Z,35.95
2019-05-13T16:01:22.954Z,38.16
2019-05-13T16:03:52.550Z,42.02
2019-05-13T16:06:21.207Z,41.96
2019-05-13T16:08:51.968Z,42.01
2019-05-13T16:11:21.977Z,38.99
2019-05-13T16:13:51.858Z,34.60
2019-05-13T16:16:22.049Z,33.71
2019-05-13T16:18:51.554Z,35.22
2019-05-13T16:21:20.125Z,31.08
2019-05-13T16:23:48.616Z,31.84
2019-05-13T16:26:17.090Z,32.68
2019-05-13T16:28:45.596Z,35.42
2019-05-13T16:31:14.069Z,36.98
2019-05-13T16:33:42.578Z,36.04
2019-05-13T16:36:12.635Z,38.55
2019-05-13T16:38:43.035Z,38.90
2019-05-13T16:41:12.437Z,38.51
2019-05-13T16:43:42.594Z,36.55
2019-05-13T16:46:12.257Z,37.30
2019-05-13T16:48:41.658Z,39.80
2019-05-13T16:51:12.456Z,43.60
2019-05-13T16:53:42.177Z,41.87
2019-05-13T16:56:25.377Z,43.01
2019-05-13T16:58:41.695Z,48.70
2019-05-13T17:01:11.715Z,49.26
2019-05-13T17:03:41.449Z,48.24
2019-05-13T17:06:12.428Z,45.93
2019-05-13T17:08:42.477Z,47.85
2019-05-13T17:11:11.840Z,44.15
2019-05-13T17:13:42.210Z,44.41
2019-05-13T17:16:10.827Z,49.72
2019-05-13T17:18:41.463Z,50.63
2019-05-13T17:21:09.588Z,46.26
2019-05-13T17:23:38.090Z,46.89
2019-05-13T17:26:06.561Z,45.48
2019-05-13T17:28:35.071Z,48.54
2019-05-13T17:31:03.620Z,49.11
2019-05-13T17:33:32.163Z,47.38
2019-05-13T17:36:01.878Z,47.12
2019-05-13T17:38:32.338Z,51.01
2019-05-13T17:41:02.223Z,51.66
2019-05-13T17:43:31.998Z,51.06
2019-05-13T17:46:00.770Z,54.20
2019-05-13T17:48:32.092Z,54.99
2019-05-13T17:51:01.297Z,53.41
2019-05-13T17:53:32.247Z,48.89
2019-05-13T17:56:02.133Z,52.21
2019-05-13T17:58:31.381Z,55.73
2019-05-13T18:01:01.714Z,53.28
2019-05-13T18:03:32.098Z,54.68
2019-05-13T18:06:02.477Z,56.68
2019-05-13T18:08:32.011Z,58.37
2019-05-13T18:11:02.199Z,59.78
2019-05-13T18:13:31.213Z,61.09
2019-05-13T18:16:02.040Z,62.32
2019-05-13T18:18:40.231Z,65.79
2019-05-13T18:21:01.496Z,66.58
2019-05-13T18:23:30.189Z,65.55
2019-05-13T18:25:58.650Z,64.94
2019-05-13T18:28:31.063Z,65.07
2019-05-13T18:30:57.366Z,64.79
2019-05-13T18:33:25.879Z,63.73
2019-05-13T18:35:54.343Z,65.98
2019-05-13T18:38:22.839Z,68.45
2019-05-13T18:40:52.570Z,69.25
2019-05-13T18:43:21.677Z,70.35
2019-05-13T18:45:51.852Z,71.71
2019-05-13T18:48:21.883Z,73.34
2019-05-13T18:50:52.321Z,73.35
2019-05-13T18:53:21.508Z,73.11
2019-05-13T18:55:52.513Z,72.39
2019-05-13T18:58:22.260Z,72.72
2019-05-13T19:00:52.284Z,73.22
2019-05-13T19:03:21.727Z,73.95
2019-05-13T19:05:50.541Z,75.37
2019-05-13T19:08:21.289Z,75.14
2019-05-13T19:10:49.286Z,75.46
2019-05-13T19:13:17.758Z,75.92
2019-05-13T19:15:46.318Z,77.62
2019-05-13T19:18:14.786Z,78.63
2019-05-13T19:20:43.283Z,79.53
2019-05-13T19:23:11.991Z,78.86
2019-05-13T19:25:42.690Z,79.22
2019-05-13T19:28:11.888Z,80.21
2019-05-13T19:30:41.195Z,80.66
2019-05-13T19:33:11.969Z,80.69
2019-05-13T19:35:42.398Z,81.65
2019-05-13T19:38:12.121Z,82.57
2019-05-13T19:40:42.019Z,82.71
2019-05-13T19:43:11.550Z,83.00
2019-05-13T19:45:41.589Z,83.27
2019-05-13T19:48:11.853Z,84.12
2019-05-13T19:50:41.575Z,84.04
2019-05-13T19:53:12.111Z,84.38
2019-05-13T19:55:41.439Z,84.51
2019-05-13T19:58:12.229Z,84.49
2019-05-13T20:00:42.388Z,84.13
2019-05-13T20:03:11.723Z,84.41
2019-05-13T20:05:41.445Z,85.04
2019-05-13T20:08:10.092Z,85.25
2019-05-13T20:10:38.589Z,86.13
2019-05-13T20:13:07.060Z,86.79
2019-05-13T20:15:35.586Z,87.61
2019-05-13T20:18:04.058Z,86.49
2019-05-13T20:20:32.719Z,85.99
2019-05-13T20:23:01.492Z,86.03
2019-05-13T20:25:31.215Z,86.36
2019-05-13T20:28:02.162Z,86.58
2019-05-13T20:30:30.021Z,86.75
2019-05-13T20:32:58.490Z,87.19
2019-05-13T20:35:26.987Z,87.11
2019-05-13T20:37:55.459Z,86.87
2019-05-13T20:40:24.020Z,87.19
2019-05-13T20:42:52.489Z,87.39
2019-05-13T20:45:22.440Z,87.46
2019-05-13T20:47:51.044Z,88.15
2019-05-13T20:50:21.470Z,87.74
2019-05-13T20:52:51.657Z,87.44
2019-05-13T20:55:22.014Z,86.52
2019-05-13T20:57:52.824Z,86.36
2019-05-13T21:00:20.621Z,87.12
2019-05-13T21:02:51.501Z,87.28
2019-05-13T21:05:21.521Z,87.48
2019-05-13T21:07:51.583Z,87.87
2019-05-13T21:10:21.189Z,88.35
2019-05-13T21:12:51.383Z,88.36
2019-05-13T21:15:20.088Z,88.74
2019-05-13T21:17:48.559Z,89.67
2019-05-13T21:20:22.193Z,89.79
2019-05-13T21:22:47.379Z,89.71
2019-05-13T21:25:15.983Z,90.08
2019-05-13T21:27:44.484Z,90.14
2019-05-13T21:30:13.390Z,90.04
2019-05-13T21:32:41.886Z,90.10
2019-05-13T21:35:11.894Z,89.61
2019-05-13T21:37:40.566Z,89.69
2019-05-13T21:40:11.209Z,89.51
2019-05-13T21:42:41.880Z,89.87
2019-05-13T21:45:11.230Z,89.53
2019-05-13T21:47:39.863Z,89.71
2019-05-13T21:50:08.572Z,90.62
2019-05-13T21:52:37.064Z,90.51
2019-05-13T21:55:06.765Z,91.26
2019-05-13T21:57:35.254Z,91.61
2019-05-13T22:00:07.702Z,91.91
2019-05-13T22:02:36.263Z,91.50
2019-05-13T22:05:04.967Z,91.99
2019-05-13T22:07:33.479Z,92.23
2019-05-13T22:10:02.073Z,90.65
2019-05-13T22:12:31.999Z,90.61
2019-05-13T22:15:01.063Z,89.48
2019-05-13T22:17:31.558Z,89.27
2019-05-13T22:20:01.788Z,89.41
2019-05-13T22:22:32.010Z,89.97
2019-05-13T22:25:01.981Z,90.25
2019-05-13T22:27:30.532Z,90.84
2019-05-13T22:30:01.176Z,91.24
2019-05-13T22:32:29.213Z,90.92
2019-05-13T22:34:57.684Z,90.90
2019-05-13T22:37:26.176Z,91.20
2019-05-13T22:39:54.652Z,91.50
2019-05-13T22:42:23.142Z,92.25
2019-05-13T22:44:52.245Z,91.96
2019-05-13T22:47:21.963Z,91.10
2019-05-13T22:49:50.696Z,90.52
2019-05-13T22:52:21.682Z,90.89
2019-05-13T22:54:51.641Z,91.79
2019-05-13T22:57:21.773Z,91.79
2019-05-13T22:59:51.872Z,92.69
2019-05-13T23:02:21.963Z,92.93
2019-05-13T23:04:51.186Z,93.28
2019-05-13T23:07:22.160Z,92.70
2019-05-13T23:09:51.928Z,91.82
2019-05-13T23:12:21.285Z,92.05
2019-05-13T23:14:51.861Z,92.64
2019-05-13T23:17:21.538Z,92.19
2019-05-13T23:19:52.225Z,92.18
2019-05-13T23:22:20.519Z,91.48
2019-05-13T23:24:48.986Z,89.99
2019-05-13T23:27:17.565Z,90.00
2019-05-13T23:29:46.035Z,90.45
2019-05-13T23:32:14.499Z,89.89
2019-05-13T23:34:42.994Z,89.04
2019-05-13T23:37:11.573Z,88.48
2019-05-13T23:39:41.586Z,89.71
2019-05-13T23:42:12.124Z,88.83
2019-05-13T23:44:41.467Z,87.67
2019-05-13T23:47:11.507Z,87.96
2019-05-13T23:49:42.162Z,86.25
2019-05-13T23:52:11.750Z,86.66
2019-05-13T23:54:42.388Z,87.66
2019-05-13T23:57:11.704Z,87.71
2019-05-13T23:59:41.907Z,87.22
